Aérodrome :
LOGIN :

S'inscrire | Disclaimer

   EN    FR    IT 

 










Légende :    VFR   VFR Marginal   IFR   IFR Intensif   IFR Très Intensif
Visi : 
Plafond : 
>= 8 km
>= 3000ft
5 à 8 km
1000 à 3000 ft
1500m à 5 km
500 à 1000 ft
800 à 1500m
200 à 500 ft
< 800m
< 200 ft
Symboles :   Orages  Brouillard  Fortes neiges  Fortes précipitations  Vent > 20 kt
SIGMETs :   Divers  Orages  Givrage  Turbulence  Onde Orograph.  Cendres Volcan.






- Altitude de l'aérodrome : 47 ft
- Code IATA : BDS


LIBR - Casale Arpt. Brindisi

DERNIER METAR :
  • 032020Z 33010KT CAVOK 27/24 Q1014

METARs EXPIRÉS :
  • 031950Z 33010KT CAVOK 27/25 Q1014
  • 031920Z 33009KT CAVOK 27/25 Q1014
  • 031850Z 33011KT CAVOK 27/25 Q1014
  • 031820Z 33010KT CAVOK 27/25 Q1013
  • 030520Z 33012KT CAVOK 27/23 Q1015
  • 031750Z 33010KT CAVOK 28/25 Q1013

TAF TAF LIBR
Valide du 03 à 18h jusqu'au 04 à 18h UTC


031700Z 0318/0418 34012KT 9999 FEW010



MET'MAP, la Météo Aéronautique d'un coup d'oeil ! - Copyright ORBIFLY Décembre 2007 - Disclaimer

ORBIFLY MET'MAP TEAM :

Programmation & Développement : Alexandra Zaïnal
Sur une idée originale de : Baudouin d'Aumeries
Soutien technique & logistique : Manuel Goepfert
Assistance : Marc-Olivier Méhu




SOURCES & CREDITS :

   NOAA